sensor_id;sensor_type;location;lat;lon;timestamp;P1;durP1;ratioP1;P2;durP2;ratioP2
16634;SDS011;8431;52.458;9.998;2023-10-19T00:02:14;17.77;;;16.38;;
16634;SDS011;8431;52.458;9.998;2023-10-19T00:04:44;17.77;;;16.27;;
16634;SDS011;8431;52.458;9.998;2023-10-19T00:07:13;17.27;;;15.98;;
16634;SDS011;8431;52.458;9.998;2023-10-19T00:09:41;18.08;;;16.50;;
16634;SDS011;8431;52.458;9.998;2023-10-19T00:12:11;20.13;;;17.05;;
16634;SDS011;8431;52.458;9.998;2023-10-19T00:14:40;18.88;;;17.35;;
16634;SDS011;8431;52.458;9.998;2023-10-19T00:17:06;18.40;;;16.70;;
16634;SDS011;8431;52.458;9.998;2023-10-19T00:19:37;18.25;;;16.75;;
16634;SDS011;8431;52.458;9.998;2023-10-19T00:22:06;19.10;;;17.38;;
16634;SDS011;8431;52.458;9.998;2023-10-19T00:24:41;19.58;;;17.88;;
16634;SDS011;8431;52.458;9.998;2023-10-19T00:27:09;18.80;;;17.40;;
16634;SDS011;8431;52.458;9.998;2023-10-19T00:29:41;19.75;;;18.15;;
16634;SDS011;8431;52.458;9.998;2023-10-19T00:32:13;20.27;;;18.52;;
16634;SDS011;8431;52.458;9.998;2023-10-19T00:34:41;20.73;;;18.77;;
16634;SDS011;8431;52.458;9.998;2023-10-19T00:37:15;20.17;;;18.30;;
16634;SDS011;8431;52.458;9.998;2023-10-19T00:39:45;19.27;;;17.77;;
16634;SDS011;8431;52.458;9.998;2023-10-19T00:42:19;19.42;;;17.85;;
16634;SDS011;8431;52.458;9.998;2023-10-19T00:44:50;20.23;;;18.25;;
16634;SDS011;8431;52.458;9.998;2023-10-19T00:47:20;18.98;;;17.33;;
16634;SDS011;8431;52.458;9.998;2023-10-19T00:49:51;17.33;;;15.98;;
16634;SDS011;8431;52.458;9.998;2023-10-19T00:52:19;19.40;;;17.52;;
16634;SDS011;8431;52.458;9.998;2023-10-19T00:54:48;19.33;;;17.63;;
16634;SDS011;8431;52.458;9.998;2023-10-19T00:57:20;18.63;;;17.13;;
16634;SDS011;8431;52.458;9.998;2023-10-19T00:59:57;19.05;;;17.55;;
16634;SDS011;8431;52.458;9.998;2023-10-19T01:02:36;9.80;;;9.50;;
16634;SDS011;8431;52.458;9.998;2023-10-19T01:05:10;9.63;;;9.32;;
16634;SDS011;8431;52.458;9.998;2023-10-19T01:07:38;9.27;;;8.98;;
16634;SDS011;8431;52.458;9.998;2023-10-19T01:10:07;9.55;;;9.25;;
16634;SDS011;8431;52.458;9.998;2023-10-19T01:12:37;9.70;;;9.40;;
16634;SDS011;8431;52.458;9.998;2023-10-19T01:15:06;10.05;;;9.75;;
16634;SDS011;8431;52.458;9.998;2023-10-19T01:17:38;9.98;;;9.68;;
16634;SDS011;8431;52.458;9.998;2023-10-19T01:20:10;9.98;;;9.68;;
16634;SDS011;8431;52.458;9.998;2023-10-19T01:22:50;10.55;;;10.25;;
16634;SDS011;8431;52.458;9.998;2023-10-19T01:25:44;10.80;;;10.50;;
16634;SDS011;8431;52.458;9.998;2023-10-19T01:28:15;11.48;;;11.07;;
16634;SDS011;8431;52.458;9.998;2023-10-19T01:30:42;14.25;;;13.55;;
16634;SDS011;8431;52.458;9.998;2023-10-19T01:33:10;12.15;;;11.75;;
16634;SDS011;8431;52.458;9.998;2023-10-19T01:35:40;12.32;;;11.93;;
16634;SDS011;8431;52.458;9.998;2023-10-19T01:38:27;13.93;;;13.43;;
16634;SDS011;8431;52.458;9.998;2023-10-19T01:40:56;13.07;;;12.68;;
16634;SDS011;8431;52.458;9.998;2023-10-19T01:43:25;12.95;;;12.55;;
16634;SDS011;8431;52.458;9.998;2023-10-19T01:45:55;12.82;;;12.43;;
16634;SDS011;8431;52.458;9.998;2023-10-19T01:48:22;12.98;;;12.52;;
16634;SDS011;8431;52.458;9.998;2023-10-19T01:50:58;12.85;;;12.45;;
16634;SDS011;8431;52.458;9.998;2023-10-19T01:53:30;13.35;;;12.85;;
16634;SDS011;8431;52.458;9.998;2023-10-19T01:55:56;13.05;;;12.57;;
16634;SDS011;8431;52.458;9.998;2023-10-19T01:58:24;13.63;;;13.13;;
16634;SDS011;8431;52.458;9.998;2023-10-19T02:00:50;13.85;;;13.35;;
16634;SDS011;8431;52.458;9.998;2023-10-19T02:03:20;12.80;;;12.40;;
16634;SDS011;8431;52.458;9.998;2023-10-19T02:05:50;14.23;;;13.73;;
16634;SDS011;8431;52.458;9.998;2023-10-19T02:08:24;14.02;;;13.52;;
16634;SDS011;8431;52.458;9.998;2023-10-19T02:10:53;14.30;;;13.80;;
16634;SDS011;8431;52.458;9.998;2023-10-19T02:13:20;15.15;;;14.55;;
16634;SDS011;8431;52.458;9.998;2023-10-19T02:15:46;19.52;;;18.55;;
16634;SDS011;8431;52.458;9.998;2023-10-19T02:18:19;15.20;;;14.60;;
16634;SDS011;8431;52.458;9.998;2023-10-19T02:20:45;15.45;;;14.85;;
16634;SDS011;8431;52.458;9.998;2023-10-19T02:23:13;15.95;;;15.35;;
16634;SDS011;8431;52.458;9.998;2023-10-19T02:25:39;15.85;;;15.25;;
16634;SDS011;8431;52.458;9.998;2023-10-19T02:28:10;14.30;;;13.80;;
16634;SDS011;8431;52.458;9.998;2023-10-19T02:30:36;14.18;;;13.68;;
16634;SDS011;8431;52.458;9.998;2023-10-19T02:33:05;13.50;;;13.00;;
16634;SDS011;8431;52.458;9.998;2023-10-19T02:35:32;13.80;;;13.30;;
16634;SDS011;8431;52.458;9.998;2023-10-19T02:38:00;15.07;;;14.48;;
16634;SDS011;8431;52.458;9.998;2023-10-19T02:40:30;15.43;;;14.80;;
16634;SDS011;8431;52.458;9.998;2023-10-19T02:42:59;14.50;;;14.00;;
16634;SDS011;8431;52.458;9.998;2023-10-19T02:45:29;14.13;;;13.63;;
16634;SDS011;8431;52.458;9.998;2023-10-19T02:47:57;13.63;;;13.13;;
16634;SDS011;8431;52.458;9.998;2023-10-19T02:50:23;14.00;;;13.50;;
16634;SDS011;8431;52.458;9.998;2023-10-19T02:52:51;13.90;;;13.40;;
16634;SDS011;8431;52.458;9.998;2023-10-19T02:55:18;14.05;;;13.55;;
16634;SDS011;8431;52.458;9.998;2023-10-19T02:57:45;13.70;;;13.20;;
16634;SDS011;8431;52.458;9.998;2023-10-19T03:00:13;14.43;;;13.93;;
16634;SDS011;8431;52.458;9.998;2023-10-19T03:02:42;13.65;;;13.15;;
16634;SDS011;8431;52.458;9.998;2023-10-19T03:05:08;13.40;;;12.90;;
16634;SDS011;8431;52.458;9.998;2023-10-19T03:07:39;12.63;;;12.23;;
16634;SDS011;8431;52.458;9.998;2023-10-19T03:10:09;12.85;;;12.35;;
16634;SDS011;8431;52.458;9.998;2023-10-19T03:12:48;11.70;;;11.30;;
16634;SDS011;8431;52.458;9.998;2023-10-19T03:15:15;12.63;;;12.23;;
16634;SDS011;8431;52.458;9.998;2023-10-19T03:17:44;12.43;;;12.02;;
16634;SDS011;8431;52.458;9.998;2023-10-19T03:20:10;13.80;;;13.30;;
16634;SDS011;8431;52.458;9.998;2023-10-19T03:22:37;14.10;;;13.52;;
16634;SDS011;8431;52.458;9.998;2023-10-19T03:25:03;14.30;;;13.70;;
16634;SDS011;8431;52.458;9.998;2023-10-19T03:27:57;15.90;;;15.20;;
16634;SDS011;8431;52.458;9.998;2023-10-19T03:30:31;14.40;;;13.80;;
16634;SDS011;8431;52.458;9.998;2023-10-19T03:32:59;14.50;;;13.90;;
16634;SDS011;8431;52.458;9.998;2023-10-19T03:35:26;14.90;;;14.30;;
16634;SDS011;8431;52.458;9.998;2023-10-19T03:37:53;14.70;;;14.10;;
16634;SDS011;8431;52.458;9.998;2023-10-19T03:40:23;14.35;;;13.82;;
16634;SDS011;8431;52.458;9.998;2023-10-19T03:42:55;13.95;;;13.45;;
16634;SDS011;8431;52.458;9.998;2023-10-19T03:45:24;14.85;;;14.25;;
16634;SDS011;8431;52.458;9.998;2023-10-19T03:47:51;14.55;;;13.95;;
16634;SDS011;8431;52.458;9.998;2023-10-19T03:50:22;14.20;;;13.70;;
16634;SDS011;8431;52.458;9.998;2023-10-19T03:52:50;13.55;;;13.05;;
16634;SDS011;8431;52.458;9.998;2023-10-19T03:55:18;13.40;;;12.90;;
16634;SDS011;8431;52.458;9.998;2023-10-19T03:57:48;13.55;;;13.05;;
16634;SDS011;8431;52.458;9.998;2023-10-19T04:00:19;13.80;;;13.30;;
16634;SDS011;8431;52.458;9.998;2023-10-19T04:05:43;14.10;;;13.60;;
16634;SDS011;8431;52.458;9.998;2023-10-19T04:08:12;13.82;;;13.32;;
16634;SDS011;8431;52.458;9.998;2023-10-19T04:10:40;14.00;;;13.50;;
16634;SDS011;8431;52.458;9.998;2023-10-19T04:13:12;14.25;;;13.75;;
16634;SDS011;8431;52.458;9.998;2023-10-19T04:15:39;13.20;;;12.70;;
16634;SDS011;8431;52.458;9.998;2023-10-19T04:18:06;13.40;;;12.90;;
16634;SDS011;8431;52.458;9.998;2023-10-19T04:20:36;13.25;;;12.75;;
16634;SDS011;8431;52.458;9.998;2023-10-19T04:23:22;13.25;;;12.75;;
16634;SDS011;8431;52.458;9.998;2023-10-19T04:25:53;13.00;;;12.50;;
16634;SDS011;8431;52.458;9.998;2023-10-19T04:28:23;13.27;;;12.77;;
16634;SDS011;8431;52.458;9.998;2023-10-19T04:30:58;14.20;;;13.70;;
16634;SDS011;8431;52.458;9.998;2023-10-19T04:33:28;16.42;;;15.63;;
16634;SDS011;8431;52.458;9.998;2023-10-19T04:35:55;17.30;;;16.50;;
16634;SDS011;8431;52.458;9.998;2023-10-19T04:38:26;14.10;;;13.60;;
16634;SDS011;8431;52.458;9.998;2023-10-19T04:41:02;14.68;;;14.07;;
16634;SDS011;8431;52.458;9.998;2023-10-19T04:43:32;14.38;;;13.82;;
16634;SDS011;8431;52.458;9.998;2023-10-19T04:46:00;14.25;;;13.75;;
16634;SDS011;8431;52.458;9.998;2023-10-19T04:48:32;13.38;;;12.88;;
16634;SDS011;8431;52.458;9.998;2023-10-19T04:51:00;13.82;;;13.32;;
16634;SDS011;8431;52.458;9.998;2023-10-19T04:53:30;13.45;;;12.95;;
16634;SDS011;8431;52.458;9.998;2023-10-19T04:55:57;13.80;;;13.30;;
16634;SDS011;8431;52.458;9.998;2023-10-19T04:58:25;14.50;;;13.90;;
16634;SDS011;8431;52.458;9.998;2023-10-19T05:00:53;14.13;;;13.63;;
16634;SDS011;8431;52.458;9.998;2023-10-19T05:03:19;13.60;;;13.10;;
16634;SDS011;8431;52.458;9.998;2023-10-19T05:05:49;13.80;;;13.30;;
16634;SDS011;8431;52.458;9.998;2023-10-19T05:08:16;13.88;;;13.38;;
16634;SDS011;8431;52.458;9.998;2023-10-19T05:10:45;13.60;;;13.10;;
16634;SDS011;8431;52.458;9.998;2023-10-19T05:13:12;13.10;;;12.60;;
16634;SDS011;8431;52.458;9.998;2023-10-19T05:15:39;13.15;;;12.65;;
16634;SDS011;8431;52.458;9.998;2023-10-19T05:18:07;13.30;;;12.80;;
16634;SDS011;8431;52.458;9.998;2023-10-19T05:20:35;13.50;;;13.00;;
16634;SDS011;8431;52.458;9.998;2023-10-19T05:23:06;13.63;;;13.13;;
16634;SDS011;8431;52.458;9.998;2023-10-19T05:25:34;13.82;;;13.32;;
16634;SDS011;8431;52.458;9.998;2023-10-19T05:28:04;13.18;;;12.68;;
16634;SDS011;8431;52.458;9.998;2023-10-19T05:30:31;15.10;;;14.40;;
16634;SDS011;8431;52.458;9.998;2023-10-19T05:32:59;13.80;;;13.30;;
16634;SDS011;8431;52.458;9.998;2023-10-19T05:35:26;14.88;;;14.27;;
16634;SDS011;8431;52.458;9.998;2023-10-19T05:37:59;14.55;;;13.98;;
16634;SDS011;8431;52.458;9.998;2023-10-19T05:40:30;14.52;;;13.93;;
16634;SDS011;8431;52.458;9.998;2023-10-19T05:42:59;13.73;;;13.23;;
16634;SDS011;8431;52.458;9.998;2023-10-19T05:45:28;14.70;;;14.10;;
16634;SDS011;8431;52.458;9.998;2023-10-19T05:47:55;15.25;;;14.65;;
16634;SDS011;8431;52.458;9.998;2023-10-19T05:50:23;15.70;;;15.00;;
16634;SDS011;8431;52.458;9.998;2023-10-19T05:52:50;14.88;;;14.27;;
16634;SDS011;8431;52.458;9.998;2023-10-19T05:55:18;15.48;;;14.88;;
16634;SDS011;8431;52.458;9.998;2023-10-19T05:57:46;15.85;;;15.25;;
16634;SDS011;8431;52.458;9.998;2023-10-19T06:00:14;15.90;;;15.30;;
16634;SDS011;8431;52.458;9.998;2023-10-19T06:02:45;15.57;;;14.98;;
16634;SDS011;8431;52.458;9.998;2023-10-19T06:05:12;18.92;;;17.85;;
16634;SDS011;8431;52.458;9.998;2023-10-19T06:07:41;15.05;;;14.45;;
16634;SDS011;8431;52.458;9.998;2023-10-19T06:10:10;14.38;;;13.88;;
16634;SDS011;8431;52.458;9.998;2023-10-19T06:12:41;14.50;;;14.00;;
16634;SDS011;8431;52.458;9.998;2023-10-19T06:15:08;14.85;;;14.25;;
16634;SDS011;8431;52.458;9.998;2023-10-19T06:17:37;15.13;;;14.52;;
16634;SDS011;8431;52.458;9.998;2023-10-19T06:23:03;15.50;;;14.90;;
16634;SDS011;8431;52.458;9.998;2023-10-19T06:25:31;16.10;;;15.40;;
16634;SDS011;8431;52.458;9.998;2023-10-19T06:28:00;15.63;;;15.02;;
16634;SDS011;8431;52.458;9.998;2023-10-19T06:30:26;15.90;;;15.20;;
16634;SDS011;8431;52.458;9.998;2023-10-19T06:32:55;16.08;;;15.38;;
16634;SDS011;8431;52.458;9.998;2023-10-19T06:35:25;15.57;;;14.98;;
16634;SDS011;8431;52.458;9.998;2023-10-19T06:37:55;15.88;;;15.27;;
16634;SDS011;8431;52.458;9.998;2023-10-19T06:40:22;23.45;;;21.55;;
16634;SDS011;8431;52.458;9.998;2023-10-19T06:42:49;15.20;;;14.60;;
16634;SDS011;8431;52.458;9.998;2023-10-19T06:45:19;15.68;;;15.07;;
16634;SDS011;8431;52.458;9.998;2023-10-19T06:47:49;16.08;;;15.43;;
16634;SDS011;8431;52.458;9.998;2023-10-19T06:50:17;15.25;;;14.65;;
16634;SDS011;8431;52.458;9.998;2023-10-19T06:52:45;15.45;;;14.85;;
16634;SDS011;8431;52.458;9.998;2023-10-19T06:55:14;16.27;;;15.57;;
16634;SDS011;8431;52.458;9.998;2023-10-19T06:57:46;15.43;;;14.82;;
16634;SDS011;8431;52.458;9.998;2023-10-19T07:00:15;14.95;;;14.35;;
16634;SDS011;8431;52.458;9.998;2023-10-19T07:02:48;14.68;;;14.07;;
16634;SDS011;8431;52.458;9.998;2023-10-19T07:05:18;14.73;;;14.13;;
16634;SDS011;8431;52.458;9.998;2023-10-19T07:07:47;14.60;;;14.00;;
16634;SDS011;8431;52.458;9.998;2023-10-19T07:10:18;14.50;;;13.90;;
16634;SDS011;8431;52.458;9.998;2023-10-19T07:15:41;13.48;;;12.98;;
16634;SDS011;8431;52.458;9.998;2023-10-19T07:18:11;14.07;;;13.57;;
16634;SDS011;8431;52.458;9.998;2023-10-19T07:20:38;15.15;;;14.55;;
16634;SDS011;8431;52.458;9.998;2023-10-19T07:23:10;16.55;;;15.85;;
16634;SDS011;8431;52.458;9.998;2023-10-19T07:25:45;16.23;;;15.52;;
16634;SDS011;8431;52.458;9.998;2023-10-19T07:28:13;15.70;;;15.00;;
16634;SDS011;8431;52.458;9.998;2023-10-19T07:30:41;16.48;;;15.77;;
16634;SDS011;8431;52.458;9.998;2023-10-19T07:33:08;16.33;;;15.63;;
16634;SDS011;8431;52.458;9.998;2023-10-19T07:35:36;15.73;;;15.13;;
16634;SDS011;8431;52.458;9.998;2023-10-19T07:38:04;15.82;;;15.23;;
16634;SDS011;8431;52.458;9.998;2023-10-19T07:40:33;15.45;;;14.85;;
16634;SDS011;8431;52.458;9.998;2023-10-19T07:43:01;16.25;;;15.55;;
16634;SDS011;8431;52.458;9.998;2023-10-19T07:45:29;15.10;;;14.50;;
16634;SDS011;8431;52.458;9.998;2023-10-19T07:47:56;15.65;;;15.05;;
16634;SDS011;8431;52.458;9.998;2023-10-19T07:50:31;13.85;;;13.35;;
16634;SDS011;8431;52.458;9.998;2023-10-19T07:52:58;15.90;;;15.30;;
16634;SDS011;8431;52.458;9.998;2023-10-19T07:55:25;15.90;;;15.30;;
16634;SDS011;8431;52.458;9.998;2023-10-19T07:57:55;15.63;;;15.02;;
16634;SDS011;8431;52.458;9.998;2023-10-19T08:00:26;15.50;;;14.90;;
16634;SDS011;8431;52.458;9.998;2023-10-19T08:02:57;16.00;;;15.40;;
16634;SDS011;8431;52.458;9.998;2023-10-19T08:05:24;15.48;;;14.88;;
16634;SDS011;8431;52.458;9.998;2023-10-19T08:07:55;15.60;;;15.00;;
16634;SDS011;8431;52.458;9.998;2023-10-19T08:10:25;14.55;;;13.98;;
16634;SDS011;8431;52.458;9.998;2023-10-19T08:12:52;15.60;;;15.00;;
16634;SDS011;8431;52.458;9.998;2023-10-19T08:18:30;15.25;;;14.65;;
16634;SDS011;8431;52.458;9.998;2023-10-19T08:20:58;15.63;;;15.02;;
16634;SDS011;8431;52.458;9.998;2023-10-19T08:23:25;15.25;;;14.65;;
16634;SDS011;8431;52.458;9.998;2023-10-19T08:25:52;14.55;;;14.05;;
16634;SDS011;8431;52.458;9.998;2023-10-19T08:28:19;14.88;;;14.27;;
16634;SDS011;8431;52.458;9.998;2023-10-19T08:30:47;16.23;;;15.60;;
16634;SDS011;8431;52.458;9.998;2023-10-19T08:33:22;16.92;;;16.23;;
16634;SDS011;8431;52.458;9.998;2023-10-19T08:35:55;16.58;;;15.88;;
16634;SDS011;8431;52.458;9.998;2023-10-19T08:38:22;15.10;;;14.50;;
16634;SDS011;8431;52.458;9.998;2023-10-19T08:40:49;16.05;;;15.45;;
16634;SDS011;8431;52.458;9.998;2023-10-19T08:43:16;15.98;;;15.38;;
16634;SDS011;8431;52.458;9.998;2023-10-19T08:45:44;16.00;;;15.40;;
16634;SDS011;8431;52.458;9.998;2023-10-19T08:48:17;16.35;;;15.73;;
16634;SDS011;8431;52.458;9.998;2023-10-19T08:51:03;15.75;;;15.15;;
16634;SDS011;8431;52.458;9.998;2023-10-19T08:53:36;15.40;;;14.80;;
16634;SDS011;8431;52.458;9.998;2023-10-19T08:56:06;15.43;;;14.82;;
16634;SDS011;8431;52.458;9.998;2023-10-19T08:58:33;16.42;;;15.73;;
16634;SDS011;8431;52.458;9.998;2023-10-19T09:01:13;16.02;;;15.35;;
16634;SDS011;8431;52.458;9.998;2023-10-19T09:03:40;14.38;;;13.80;;
16634;SDS011;8431;52.458;9.998;2023-10-19T09:06:11;14.95;;;14.35;;
16634;SDS011;8431;52.458;9.998;2023-10-19T09:08:40;15.10;;;14.50;;
16634;SDS011;8431;52.458;9.998;2023-10-19T09:11:10;14.70;;;14.10;;
16634;SDS011;8431;52.458;9.998;2023-10-19T09:13:44;14.40;;;13.85;;
16634;SDS011;8431;52.458;9.998;2023-10-19T09:16:15;14.13;;;13.63;;
16634;SDS011;8431;52.458;9.998;2023-10-19T09:18:42;13.30;;;12.80;;
16634;SDS011;8431;52.458;9.998;2023-10-19T09:21:11;15.07;;;14.48;;
16634;SDS011;8431;52.458;9.998;2023-10-19T09:23:52;14.82;;;14.23;;
16634;SDS011;8431;52.458;9.998;2023-10-19T09:26:20;14.60;;;14.00;;
16634;SDS011;8431;52.458;9.998;2023-10-19T09:28:51;13.50;;;13.00;;
16634;SDS011;8431;52.458;9.998;2023-10-19T09:31:19;14.38;;;13.88;;
16634;SDS011;8431;52.458;9.998;2023-10-19T09:33:51;14.63;;;14.05;;
16634;SDS011;8431;52.458;9.998;2023-10-19T09:36:20;14.60;;;14.02;;
16634;SDS011;8431;52.458;9.998;2023-10-19T09:38:51;14.77;;;14.18;;
16634;SDS011;8431;52.458;9.998;2023-10-19T09:41:19;15.82;;;15.23;;
16634;SDS011;8431;52.458;9.998;2023-10-19T09:43:48;15.63;;;15.02;;
16634;SDS011;8431;52.458;9.998;2023-10-19T09:46:20;15.68;;;15.07;;
16634;SDS011;8431;52.458;9.998;2023-10-19T09:48:49;15.60;;;15.00;;
16634;SDS011;8431;52.458;9.998;2023-10-19T09:51:17;15.40;;;14.80;;
16634;SDS011;8431;52.458;9.998;2023-10-19T09:53:48;15.18;;;14.57;;
16634;SDS011;8431;52.458;9.998;2023-10-19T09:56:20;15.50;;;14.90;;
16634;SDS011;8431;52.458;9.998;2023-10-19T09:58:53;15.50;;;14.90;;
16634;SDS011;8431;52.458;9.998;2023-10-19T10:01:23;15.80;;;15.20;;
16634;SDS011;8431;52.458;9.998;2023-10-19T10:03:53;15.45;;;14.85;;
16634;SDS011;8431;52.458;9.998;2023-10-19T10:09:26;14.75;;;14.15;;
16634;SDS011;8431;52.458;9.998;2023-10-19T10:11:55;15.52;;;14.93;;
16634;SDS011;8431;52.458;9.998;2023-10-19T10:14:22;15.27;;;14.68;;
16634;SDS011;8431;52.458;9.998;2023-10-19T10:16:59;14.82;;;14.23;;
16634;SDS011;8431;52.458;9.998;2023-10-19T10:19:27;15.15;;;14.55;;
16634;SDS011;8431;52.458;9.998;2023-10-19T10:22:03;15.38;;;14.77;;
16634;SDS011;8431;52.458;9.998;2023-10-19T10:24:35;15.50;;;14.90;;
16634;SDS011;8431;52.458;9.998;2023-10-19T10:27:06;15.35;;;14.75;;
16634;SDS011;8431;52.458;9.998;2023-10-19T10:29:35;14.40;;;13.90;;
16634;SDS011;8431;52.458;9.998;2023-10-19T10:32:05;14.60;;;14.10;;
16634;SDS011;8431;52.458;9.998;2023-10-19T10:34:44;14.55;;;14.05;;
16634;SDS011;8431;52.458;9.998;2023-10-19T10:37:14;15.00;;;14.40;;
16634;SDS011;8431;52.458;9.998;2023-10-19T10:39:42;13.00;;;12.52;;
16634;SDS011;8431;52.458;9.998;2023-10-19T10:42:10;13.73;;;13.23;;
16634;SDS011;8431;52.458;9.998;2023-10-19T10:44:38;13.20;;;12.70;;
16634;SDS011;8431;52.458;9.998;2023-10-19T10:47:06;14.15;;;13.65;;
16634;SDS011;8431;52.458;9.998;2023-10-19T10:49:35;15.43;;;14.82;;
16634;SDS011;8431;52.458;9.998;2023-10-19T10:52:22;16.00;;;15.40;;
16634;SDS011;8431;52.458;9.998;2023-10-19T10:57:22;15.25;;;14.65;;
16634;SDS011;8431;52.458;9.998;2023-10-19T11:00:00;15.48;;;14.88;;
16634;SDS011;8431;52.458;9.998;2023-10-19T11:02:31;14.48;;;13.95;;
16634;SDS011;8431;52.458;9.998;2023-10-19T11:04:58;13.93;;;13.43;;
16634;SDS011;8431;52.458;9.998;2023-10-19T11:07:26;13.98;;;13.48;;
16634;SDS011;8431;52.458;9.998;2023-10-19T11:09:52;12.95;;;12.45;;
16634;SDS011;8431;52.458;9.998;2023-10-19T11:12:21;13.30;;;12.80;;
16634;SDS011;8431;52.458;9.998;2023-10-19T11:14:52;13.32;;;12.82;;
16634;SDS011;8431;52.458;9.998;2023-10-19T11:17:20;13.35;;;12.85;;
16634;SDS011;8431;52.458;9.998;2023-10-19T11:19:53;13.45;;;12.95;;
16634;SDS011;8431;52.458;9.998;2023-10-19T11:22:21;13.20;;;12.70;;
16634;SDS011;8431;52.458;9.998;2023-10-19T11:24:49;13.40;;;12.90;;
16634;SDS011;8431;52.458;9.998;2023-10-19T11:27:23;13.75;;;13.25;;
16634;SDS011;8431;52.458;9.998;2023-10-19T11:29:56;13.35;;;12.85;;
16634;SDS011;8431;52.458;9.998;2023-10-19T11:32:24;13.88;;;13.38;;
16634;SDS011;8431;52.458;9.998;2023-10-19T11:34:52;13.73;;;13.23;;
16634;SDS011;8431;52.458;9.998;2023-10-19T11:37:20;13.70;;;13.20;;
16634;SDS011;8431;52.458;9.998;2023-10-19T11:39:50;13.40;;;12.90;;
16634;SDS011;8431;52.458;9.998;2023-10-19T11:42:17;13.68;;;13.18;;
16634;SDS011;8431;52.458;9.998;2023-10-19T11:44:46;13.75;;;13.25;;
16634;SDS011;8431;52.458;9.998;2023-10-19T11:47:13;14.10;;;13.60;;
16634;SDS011;8431;52.458;9.998;2023-10-19T11:49:40;15.25;;;14.65;;
16634;SDS011;8431;52.458;9.998;2023-10-19T11:52:07;16.00;;;15.40;;
16634;SDS011;8431;52.458;9.998;2023-10-19T11:54:34;15.63;;;15.02;;
16634;SDS011;8431;52.458;9.998;2023-10-19T11:57:00;15.20;;;14.60;;
16634;SDS011;8431;52.458;9.998;2023-10-19T11:59:28;16.60;;;15.93;;
16634;SDS011;8431;52.458;9.998;2023-10-19T12:01:56;16.20;;;15.60;;
16634;SDS011;8431;52.458;9.998;2023-10-19T12:04:24;14.55;;;13.95;;
16634;SDS011;8431;52.458;9.998;2023-10-19T12:06:51;15.10;;;14.50;;
16634;SDS011;8431;52.458;9.998;2023-10-19T12:09:18;15.77;;;15.18;;
16634;SDS011;8431;52.458;9.998;2023-10-19T12:11:49;16.27;;;15.68;;
16634;SDS011;8431;52.458;9.998;2023-10-19T12:14:18;17.05;;;16.35;;
16634;SDS011;8431;52.458;9.998;2023-10-19T12:16:46;15.10;;;14.50;;
16634;SDS011;8431;52.458;9.998;2023-10-19T12:19:17;15.27;;;14.68;;
16634;SDS011;8431;52.458;9.998;2023-10-19T12:21:44;15.23;;;14.63;;
16634;SDS011;8431;52.458;9.998;2023-10-19T12:24:11;15.98;;;15.38;;
16634;SDS011;8431;52.458;9.998;2023-10-19T12:26:40;15.23;;;14.63;;
16634;SDS011;8431;52.458;9.998;2023-10-19T12:31:39;15.73;;;15.13;;
16634;SDS011;8431;52.458;9.998;2023-10-19T12:34:06;14.40;;;13.90;;
16634;SDS011;8431;52.458;9.998;2023-10-19T12:36:35;14.25;;;13.75;;
16634;SDS011;8431;52.458;9.998;2023-10-19T12:39:02;12.95;;;12.45;;
16634;SDS011;8431;52.458;9.998;2023-10-19T12:41:34;13.45;;;12.95;;
16634;SDS011;8431;52.458;9.998;2023-10-19T12:44:01;13.95;;;13.45;;
16634;SDS011;8431;52.458;9.998;2023-10-19T12:46:33;14.00;;;13.50;;
16634;SDS011;8431;52.458;9.998;2023-10-19T12:49:05;14.70;;;14.20;;
16634;SDS011;8431;52.458;9.998;2023-10-19T12:51:35;14.52;;;13.98;;
16634;SDS011;8431;52.458;9.998;2023-10-19T12:54:03;15.25;;;14.65;;
16634;SDS011;8431;52.458;9.998;2023-10-19T12:56:35;14.70;;;14.10;;
16634;SDS011;8431;52.458;9.998;2023-10-19T12:59:04;14.63;;;14.02;;
16634;SDS011;8431;52.458;9.998;2023-10-19T13:01:33;16.80;;;16.10;;
16634;SDS011;8431;52.458;9.998;2023-10-19T13:04:00;16.63;;;16.02;;
16634;SDS011;8431;52.458;9.998;2023-10-19T13:06:40;14.32;;;13.80;;
16634;SDS011;8431;52.458;9.998;2023-10-19T13:09:07;14.43;;;13.85;;
16634;SDS011;8431;52.458;9.998;2023-10-19T13:11:35;14.95;;;14.35;;
16634;SDS011;8431;52.458;9.998;2023-10-19T13:14:03;13.73;;;13.23;;
16634;SDS011;8431;52.458;9.998;2023-10-19T13:16:32;14.02;;;13.52;;
16634;SDS011;8431;52.458;9.998;2023-10-19T13:18:59;13.05;;;12.55;;
16634;SDS011;8431;52.458;9.998;2023-10-19T13:21:33;14.00;;;13.50;;
16634;SDS011;8431;52.458;9.998;2023-10-19T13:24:04;13.75;;;13.25;;
16634;SDS011;8431;52.458;9.998;2023-10-19T13:26:32;13.32;;;12.82;;
16634;SDS011;8431;52.458;9.998;2023-10-19T13:28:59;13.18;;;12.68;;
16634;SDS011;8431;52.458;9.998;2023-10-19T13:31:27;13.73;;;13.23;;
16634;SDS011;8431;52.458;9.998;2023-10-19T13:33:54;14.43;;;13.93;;
16634;SDS011;8431;52.458;9.998;2023-10-19T13:36:21;13.77;;;13.27;;
16634;SDS011;8431;52.458;9.998;2023-10-19T13:38:47;13.50;;;13.00;;
16634;SDS011;8431;52.458;9.998;2023-10-19T13:41:16;13.50;;;13.00;;
16634;SDS011;8431;52.458;9.998;2023-10-19T13:43:43;13.07;;;12.57;;
16634;SDS011;8431;52.458;9.998;2023-10-19T13:46:10;13.20;;;12.70;;
16634;SDS011;8431;52.458;9.998;2023-10-19T13:48:37;13.10;;;12.60;;
16634;SDS011;8431;52.458;9.998;2023-10-19T13:51:04;13.57;;;13.07;;
16634;SDS011;8431;52.458;9.998;2023-10-19T13:53:37;13.43;;;12.93;;
16634;SDS011;8431;52.458;9.998;2023-10-19T13:56:06;13.85;;;13.35;;
16634;SDS011;8431;52.458;9.998;2023-10-19T13:58:35;14.18;;;13.68;;
16634;SDS011;8431;52.458;9.998;2023-10-19T14:01:06;13.88;;;13.38;;
16634;SDS011;8431;52.458;9.998;2023-10-19T14:03:46;13.23;;;12.73;;
16634;SDS011;8431;52.458;9.998;2023-10-19T14:06:17;14.32;;;13.82;;
16634;SDS011;8431;52.458;9.998;2023-10-19T14:08:44;13.48;;;12.98;;
16634;SDS011;8431;52.458;9.998;2023-10-19T14:11:34;13.68;;;13.18;;
16634;SDS011;8431;52.458;9.998;2023-10-19T14:14:05;13.50;;;13.00;;
16634;SDS011;8431;52.458;9.998;2023-10-19T14:16:34;14.35;;;13.85;;
16634;SDS011;8431;52.458;9.998;2023-10-19T14:19:01;12.70;;;12.30;;
16634;SDS011;8431;52.458;9.998;2023-10-19T14:21:30;13.60;;;13.10;;
16634;SDS011;8431;52.458;9.998;2023-10-19T14:24:07;15.15;;;14.57;;
16634;SDS011;8431;52.458;9.998;2023-10-19T14:26:34;13.10;;;12.65;;
16634;SDS011;8431;52.458;9.998;2023-10-19T14:29:05;11.98;;;11.57;;
16634;SDS011;8431;52.458;9.998;2023-10-19T14:31:32;12.57;;;12.18;;
16634;SDS011;8431;52.458;9.998;2023-10-19T14:33:59;12.73;;;12.30;;
16634;SDS011;8431;52.458;9.998;2023-10-19T14:36:29;14.43;;;13.93;;
16634;SDS011;8431;52.458;9.998;2023-10-19T14:38:57;12.27;;;11.88;;
16634;SDS011;8431;52.458;9.998;2023-10-19T14:41:30;12.18;;;11.77;;
16634;SDS011;8431;52.458;9.998;2023-10-19T14:43:57;12.38;;;11.98;;
16634;SDS011;8431;52.458;9.998;2023-10-19T14:46:27;11.80;;;11.40;;
16634;SDS011;8431;52.458;9.998;2023-10-19T14:48:54;12.15;;;11.75;;
16634;SDS011;8431;52.458;9.998;2023-10-19T14:51:22;13.07;;;12.57;;
16634;SDS011;8431;52.458;9.998;2023-10-19T14:53:49;12.18;;;11.77;;
16634;SDS011;8431;52.458;9.998;2023-10-19T14:56:16;12.25;;;11.75;;
16634;SDS011;8431;52.458;9.998;2023-10-19T14:58:43;11.63;;;11.23;;
16634;SDS011;8431;52.458;9.998;2023-10-19T15:01:09;12.27;;;11.88;;
16634;SDS011;8431;52.458;9.998;2023-10-19T15:03:43;14.65;;;13.95;;
16634;SDS011;8431;52.458;9.998;2023-10-19T15:06:10;13.30;;;12.80;;
16634;SDS011;8431;52.458;9.998;2023-10-19T15:08:39;15.30;;;14.63;;
16634;SDS011;8431;52.458;9.998;2023-10-19T15:11:06;13.63;;;13.13;;